sensor_id;sensor_type;location;lat;lon;timestamp;temperature;humidity
43647;DHT22;56152;49.996;18.980;2023-04-26T00:02:53;7.40;83.10
43647;DHT22;56152;49.996;18.980;2023-04-26T00:08:00;7.40;83.20
43647;DHT22;56152;49.996;18.980;2023-04-26T00:13:02;7.30;83.30
43647;DHT22;56152;49.996;18.980;2023-04-26T00:18:07;7.20;83.40
43647;DHT22;56152;49.996;18.980;2023-04-26T00:23:11;7.10;83.70
43647;DHT22;56152;49.996;18.980;2023-04-26T00:28:13;7.00;84.00
43647;DHT22;56152;49.996;18.980;2023-04-26T00:33:15;6.90;84.30
43647;DHT22;56152;49.996;18.980;2023-04-26T00:38:30;6.80;84.20
43647;DHT22;56152;49.996;18.980;2023-04-26T00:43:33;6.70;84.30
43647;DHT22;56152;49.996;18.980;2023-04-26T00:48:36;6.50;84.50
43647;DHT22;56152;49.996;18.980;2023-04-26T00:53:47;6.40;84.70
43647;DHT22;56152;49.996;18.980;2023-04-26T00:58:50;6.40;84.80
43647;DHT22;56152;49.996;18.980;2023-04-26T01:03:56;6.50;84.90
43647;DHT22;56152;49.996;18.980;2023-04-26T01:09:02;6.50;84.90
43647;DHT22;56152;49.996;18.980;2023-04-26T01:14:09;6.50;84.90
43647;DHT22;56152;49.996;18.980;2023-04-26T01:19:12;6.60;84.80
43647;DHT22;56152;49.996;18.980;2023-04-26T01:24:16;6.50;84.60
43647;DHT22;56152;49.996;18.980;2023-04-26T01:29:19;6.50;84.40
43647;DHT22;56152;49.996;18.980;2023-04-26T01:34:24;6.40;84.40
43647;DHT22;56152;49.996;18.980;2023-04-26T01:39:29;6.20;84.40
43647;DHT22;56152;49.996;18.980;2023-04-26T01:44:32;6.10;84.60
43647;DHT22;56152;49.996;18.980;2023-04-26T01:49:37;5.90;84.60
43647;DHT22;56152;49.996;18.980;2023-04-26T01:54:41;5.70;84.80
43647;DHT22;56152;49.996;18.980;2023-04-26T01:59:55;5.60;84.90
43647;DHT22;56152;49.996;18.980;2023-04-26T02:04:58;5.40;84.90
43647;DHT22;56152;49.996;18.980;2023-04-26T02:10:09;5.30;85.10
43647;DHT22;56152;49.996;18.980;2023-04-26T02:15:12;5.20;85.10
43647;DHT22;56152;49.996;18.980;2023-04-26T02:20:16;5.10;85.00
43647;DHT22;56152;49.996;18.980;2023-04-26T02:25:20;5.10;85.00
43647;DHT22;56152;49.996;18.980;2023-04-26T02:30:24;4.90;84.90
43647;DHT22;56152;49.996;18.980;2023-04-26T02:35:25;4.80;85.00
43647;DHT22;56152;49.996;18.980;2023-04-26T02:40:33;4.70;85.10
43647;DHT22;56152;49.996;18.980;2023-04-26T02:45:40;4.60;85.00
43647;DHT22;56152;49.996;18.980;2023-04-26T02:50:45;4.50;85.30
43647;DHT22;56152;49.996;18.980;2023-04-26T02:55:50;4.30;85.50
43647;DHT22;56152;49.996;18.980;2023-04-26T03:00:52;4.20;85.60
43647;DHT22;56152;49.996;18.980;2023-04-26T03:05:55;4.00;85.70
43647;DHT22;56152;49.996;18.980;2023-04-26T03:11:03;3.90;85.90
43647;DHT22;56152;49.996;18.980;2023-04-26T03:16:06;3.90;86.10
43647;DHT22;56152;49.996;18.980;2023-04-26T03:21:09;3.80;86.10
43647;DHT22;56152;49.996;18.980;2023-04-26T03:26:15;3.70;86.20
43647;DHT22;56152;49.996;18.980;2023-04-26T03:31:19;3.70;86.30
43647;DHT22;56152;49.996;18.980;2023-04-26T03:36:22;3.60;86.40
43647;DHT22;56152;49.996;18.980;2023-04-26T03:41:26;3.60;86.40
43647;DHT22;56152;49.996;18.980;2023-04-26T03:46:30;3.60;86.50
43647;DHT22;56152;49.996;18.980;2023-04-26T03:51:33;3.60;86.70
43647;DHT22;56152;49.996;18.980;2023-04-26T03:56:38;3.70;86.80
43647;DHT22;56152;49.996;18.980;2023-04-26T04:01:42;3.70;86.80
43647;DHT22;56152;49.996;18.980;2023-04-26T04:06:44;3.80;86.70
43647;DHT22;56152;49.996;18.980;2023-04-26T04:11:51;3.90;86.70
43647;DHT22;56152;49.996;18.980;2023-04-26T04:16:57;4.00;86.60
43647;DHT22;56152;49.996;18.980;2023-04-26T04:21:59;4.20;86.90
43647;DHT22;56152;49.996;18.980;2023-04-26T04:27:04;4.40;86.30
43647;DHT22;56152;49.996;18.980;2023-04-26T04:32:07;4.50;86.00
43647;DHT22;56152;49.996;18.980;2023-04-26T04:37:22;4.70;85.90
43647;DHT22;56152;49.996;18.980;2023-04-26T04:42:30;4.80;85.40
43647;DHT22;56152;49.996;18.980;2023-04-26T04:47:32;5.00;85.00
43647;DHT22;56152;49.996;18.980;2023-04-26T04:52:40;5.10;84.80
43647;DHT22;56152;49.996;18.980;2023-04-26T04:57:45;5.10;84.90
43647;DHT22;56152;49.996;18.980;2023-04-26T05:02:48;5.10;85.00
43647;DHT22;56152;49.996;18.980;2023-04-26T05:07:50;5.30;84.90
43647;DHT22;56152;49.996;18.980;2023-04-26T05:12:56;5.50;84.60
43647;DHT22;56152;49.996;18.980;2023-04-26T05:17:59;5.70;84.10
43647;DHT22;56152;49.996;18.980;2023-04-26T05:23:02;6.10;83.50
43647;DHT22;56152;49.996;18.980;2023-04-26T05:28:06;6.40;82.70
43647;DHT22;56152;49.996;18.980;2023-04-26T05:33:13;6.80;81.80
43647;DHT22;56152;49.996;18.980;2023-04-26T05:38:16;7.30;81.00
43647;DHT22;56152;49.996;18.980;2023-04-26T05:43:20;7.70;79.70
43647;DHT22;56152;49.996;18.980;2023-04-26T05:48:24;8.00;78.70
43647;DHT22;56152;49.996;18.980;2023-04-26T05:53:27;8.30;77.90
43647;DHT22;56152;49.996;18.980;2023-04-26T05:58:32;8.50;77.30
43647;DHT22;56152;49.996;18.980;2023-04-26T06:03:36;8.50;76.70
43647;DHT22;56152;49.996;18.980;2023-04-26T06:08:39;8.80;76.20
43647;DHT22;56152;49.996;18.980;2023-04-26T06:13:51;9.00;75.30
43647;DHT22;56152;49.996;18.980;2023-04-26T06:18:53;9.40;74.90
43647;DHT22;56152;49.996;18.980;2023-04-26T06:23:57;9.80;74.00
43647;DHT22;56152;49.996;18.980;2023-04-26T06:29:01;10.30;73.10
43647;DHT22;56152;49.996;18.980;2023-04-26T06:34:03;10.70;71.90
43647;DHT22;56152;49.996;18.980;2023-04-26T06:39:08;10.90;71.10
43647;DHT22;56152;49.996;18.980;2023-04-26T06:44:13;11.10;69.60
43647;DHT22;56152;49.996;18.980;2023-04-26T06:49:23;11.10;69.70
43647;DHT22;56152;49.996;18.980;2023-04-26T06:54:27;11.30;68.70
43647;DHT22;56152;49.996;18.980;2023-04-26T06:59:32;11.10;68.50
43647;DHT22;56152;49.996;18.980;2023-04-26T07:04:34;10.90;69.10
43647;DHT22;56152;49.996;18.980;2023-04-26T07:09:37;10.70;69.50
43647;DHT22;56152;49.996;18.980;2023-04-26T07:14:50;11.20;68.90
43647;DHT22;56152;49.996;18.980;2023-04-26T07:19:54;11.40;67.60
43647;DHT22;56152;49.996;18.980;2023-04-26T07:24:57;10.60;68.30
43647;DHT22;56152;49.996;18.980;2023-04-26T07:30:10;9.90;69.90
43647;DHT22;56152;49.996;18.980;2023-04-26T07:35:12;10.10;69.30
43647;DHT22;56152;49.996;18.980;2023-04-26T07:40:19;10.20;69.80
43647;DHT22;56152;49.996;18.980;2023-04-26T07:45:25;10.50;68.80
43647;DHT22;56152;49.996;18.980;2023-04-26T07:50:27;9.90;68.70
43647;DHT22;56152;49.996;18.980;2023-04-26T07:55:31;9.30;70.20
43647;DHT22;56152;49.996;18.980;2023-04-26T08:00:35;9.80;70.30
43647;DHT22;56152;49.996;18.980;2023-04-26T08:05:39;9.40;69.60
43647;DHT22;56152;49.996;18.980;2023-04-26T08:10:41;9.30;70.80
43647;DHT22;56152;49.996;18.980;2023-04-26T08:15:48;9.40;71.30
43647;DHT22;56152;49.996;18.980;2023-04-26T08:20:50;9.10;71.00
43647;DHT22;56152;49.996;18.980;2023-04-26T08:25:55;8.90;71.10
43647;DHT22;56152;49.996;18.980;2023-04-26T08:31:00;8.60;71.50
43647;DHT22;56152;49.996;18.980;2023-04-26T08:36:05;9.70;71.10
43647;DHT22;56152;49.996;18.980;2023-04-26T08:41:13;10.30;68.10
43647;DHT22;56152;49.996;18.980;2023-04-26T08:46:18;9.70;67.90
43647;DHT22;56152;49.996;18.980;2023-04-26T08:51:26;9.20;69.10
43647;DHT22;56152;49.996;18.980;2023-04-26T08:56:30;9.10;70.60
43647;DHT22;56152;49.996;18.980;2023-04-26T09:01:43;10.00;68.90
43647;DHT22;56152;49.996;18.980;2023-04-26T09:06:46;9.90;67.80
43647;DHT22;56152;49.996;18.980;2023-04-26T09:12:02;9.50;68.10
43647;DHT22;56152;49.996;18.980;2023-04-26T09:17:23;9.30;68.60
43647;DHT22;56152;49.996;18.980;2023-04-26T09:22:35;9.00;68.80
43647;DHT22;56152;49.996;18.980;2023-04-26T09:27:40;9.20;70.00
43647;DHT22;56152;49.996;18.980;2023-04-26T09:32:52;10.40;69.10
43647;DHT22;56152;49.996;18.980;2023-04-26T09:37:59;11.60;65.70
43647;DHT22;56152;49.996;18.980;2023-04-26T09:43:04;11.10;64.70
43647;DHT22;56152;49.996;18.980;2023-04-26T09:48:17;10.30;65.60
43647;DHT22;56152;49.996;18.980;2023-04-26T09:53:28;9.70;66.40
43647;DHT22;56152;49.996;18.980;2023-04-26T09:58:30;9.00;67.00
43647;DHT22;56152;49.996;18.980;2023-04-26T10:03:37;8.20;68.60
43647;DHT22;56152;49.996;18.980;2023-04-26T10:08:40;8.10;69.90
43647;DHT22;56152;49.996;18.980;2023-04-26T10:13:45;8.40;69.40
43647;DHT22;56152;49.996;18.980;2023-04-26T10:18:49;8.70;68.70
43647;DHT22;56152;49.996;18.980;2023-04-26T10:23:55;8.90;67.60
43647;DHT22;56152;49.996;18.980;2023-04-26T10:28:59;9.70;67.50
43647;DHT22;56152;49.996;18.980;2023-04-26T10:34:24;10.80;65.90
43647;DHT22;56152;49.996;18.980;2023-04-26T10:39:26;11.90;63.50
43647;DHT22;56152;49.996;18.980;2023-04-26T10:44:37;11.10;61.00
43647;DHT22;56152;49.996;18.980;2023-04-26T10:49:51;10.70;62.50
43647;DHT22;56152;49.996;18.980;2023-04-26T10:54:54;10.90;62.50
43647;DHT22;56152;49.996;18.980;2023-04-26T11:05:50;11.40;61.80
43647;DHT22;56152;49.996;18.980;2023-04-26T11:11:07;12.30;59.50
43647;DHT22;56152;49.996;18.980;2023-04-26T11:16:14;11.50;59.20
43647;DHT22;56152;49.996;18.980;2023-04-26T11:21:25;10.80;60.50
43647;DHT22;56152;49.996;18.980;2023-04-26T11:26:33;10.30;61.20
43647;DHT22;56152;49.996;18.980;2023-04-26T11:31:36;10.90;62.00
43647;DHT22;56152;49.996;18.980;2023-04-26T11:36:40;11.10;61.00
43647;DHT22;56152;49.996;18.980;2023-04-26T11:41:42;10.90;60.50
43647;DHT22;56152;49.996;18.980;2023-04-26T11:46:45;10.80;60.10
43647;DHT22;56152;49.996;18.980;2023-04-26T11:51:50;11.00;59.90
43647;DHT22;56152;49.996;18.980;2023-04-26T11:56:55;12.10;59.40
43647;DHT22;56152;49.996;18.980;2023-04-26T12:01:57;13.00;58.20
43647;DHT22;56152;49.996;18.980;2023-04-26T12:07:03;13.50;56.60
43647;DHT22;56152;49.996;18.980;2023-04-26T12:12:06;12.70;56.00
43647;DHT22;56152;49.996;18.980;2023-04-26T12:17:08;11.60;57.10
43647;DHT22;56152;49.996;18.980;2023-04-26T12:22:19;10.90;58.40
43647;DHT22;56152;49.996;18.980;2023-04-26T12:27:23;10.50;58.80
43647;DHT22;56152;49.996;18.980;2023-04-26T12:32:25;10.40;58.80
43647;DHT22;56152;49.996;18.980;2023-04-26T12:37:29;11.60;58.50
43647;DHT22;56152;49.996;18.980;2023-04-26T12:42:31;11.70;56.70
43647;DHT22;56152;49.996;18.980;2023-04-26T12:47:33;11.50;56.40
43647;DHT22;56152;49.996;18.980;2023-04-26T12:52:37;12.20;57.20
43647;DHT22;56152;49.996;18.980;2023-04-26T12:57:41;12.00;55.50
43647;DHT22;56152;49.996;18.980;2023-04-26T13:02:43;11.30;56.40
43647;DHT22;56152;49.996;18.980;2023-04-26T13:07:47;11.00;57.40
43647;DHT22;56152;49.996;18.980;2023-04-26T13:12:50;11.80;57.80
43647;DHT22;56152;49.996;18.980;2023-04-26T13:17:53;12.40;56.30
43647;DHT22;56152;49.996;18.980;2023-04-26T13:22:57;12.50;55.60
43647;DHT22;56152;49.996;18.980;2023-04-26T13:27:59;12.70;55.80
43647;DHT22;56152;49.996;18.980;2023-04-26T13:33:02;12.60;55.30
43647;DHT22;56152;49.996;18.980;2023-04-26T13:38:09;12.70;55.10
43647;DHT22;56152;49.996;18.980;2023-04-26T13:43:12;13.10;54.30
43647;DHT22;56152;49.996;18.980;2023-04-26T13:48:14;13.20;53.70
43647;DHT22;56152;49.996;18.980;2023-04-26T13:53:17;13.30;53.00
43647;DHT22;56152;49.996;18.980;2023-04-26T13:58:20;12.90;53.40
43647;DHT22;56152;49.996;18.980;2023-04-26T14:03:22;12.30;54.30
43647;DHT22;56152;49.996;18.980;2023-04-26T14:08:28;11.80;55.10
43647;DHT22;56152;49.996;18.980;2023-04-26T14:13:30;12.40;55.20
43647;DHT22;56152;49.996;18.980;2023-04-26T14:18:31;12.70;54.60
43647;DHT22;56152;49.996;18.980;2023-04-26T14:23:35;12.80;53.70
43647;DHT22;56152;49.996;18.980;2023-04-26T14:28:37;13.10;53.90
43647;DHT22;56152;49.996;18.980;2023-04-26T14:33:39;13.10;53.00
43647;DHT22;56152;49.996;18.980;2023-04-26T14:38:43;12.50;54.60
43647;DHT22;56152;49.996;18.980;2023-04-26T14:43:45;12.90;54.00
43647;DHT22;56152;49.996;18.980;2023-04-26T14:48:47;12.90;54.20
43647;DHT22;56152;49.996;18.980;2023-04-26T14:53:52;12.70;53.80
43647;DHT22;56152;49.996;18.980;2023-04-26T14:58:54;12.60;53.80
43647;DHT22;56152;49.996;18.980;2023-04-26T15:03:57;12.60;54.10
43647;DHT22;56152;49.996;18.980;2023-04-26T15:09:02;12.00;53.50
43647;DHT22;56152;49.996;18.980;2023-04-26T15:14:08;11.70;54.30
43647;DHT22;56152;49.996;18.980;2023-04-26T15:19:10;12.30;54.20
43647;DHT22;56152;49.996;18.980;2023-04-26T15:24:14;12.90;54.00
43647;DHT22;56152;49.996;18.980;2023-04-26T15:29:16;13.10;53.30
43647;DHT22;56152;49.996;18.980;2023-04-26T15:34:20;12.50;53.10
43647;DHT22;56152;49.996;18.980;2023-04-26T15:39:28;11.50;53.70
43647;DHT22;56152;49.996;18.980;2023-04-26T15:44:30;10.80;55.20
43647;DHT22;56152;49.996;18.980;2023-04-26T15:49:33;10.80;56.80
43647;DHT22;56152;49.996;18.980;2023-04-26T15:54:37;11.80;56.70
43647;DHT22;56152;49.996;18.980;2023-04-26T15:59:39;12.80;55.90
43647;DHT22;56152;49.996;18.980;2023-04-26T16:04:43;13.40;54.20
43647;DHT22;56152;49.996;18.980;2023-04-26T16:09:48;12.80;53.80
43647;DHT22;56152;49.996;18.980;2023-04-26T16:14:50;11.70;53.70
43647;DHT22;56152;49.996;18.980;2023-04-26T16:19:56;10.80;54.60
43647;DHT22;56152;49.996;18.980;2023-04-26T16:25:00;10.20;56.40
43647;DHT22;56152;49.996;18.980;2023-04-26T16:30:04;10.10;56.20
43647;DHT22;56152;49.996;18.980;2023-04-26T16:35:10;9.90;56.40
43647;DHT22;56152;49.996;18.980;2023-04-26T16:40:13;9.90;56.60
43647;DHT22;56152;49.996;18.980;2023-04-26T16:45:15;10.40;56.10
43647;DHT22;56152;49.996;18.980;2023-04-26T16:50:18;11.00;55.40
43647;DHT22;56152;49.996;18.980;2023-04-26T16:55:23;10.90;54.60
43647;DHT22;56152;49.996;18.980;2023-04-26T17:00:29;10.80;54.70
43647;DHT22;56152;49.996;18.980;2023-04-26T17:05:38;10.70;54.90
43647;DHT22;56152;49.996;18.980;2023-04-26T17:10:42;10.30;55.30
43647;DHT22;56152;49.996;18.980;2023-04-26T17:15:45;10.20;55.60
43647;DHT22;56152;49.996;18.980;2023-04-26T17:20:47;9.80;55.70
43647;DHT22;56152;49.996;18.980;2023-04-26T17:25:54;9.50;56.20
43647;DHT22;56152;49.996;18.980;2023-04-26T17:30:56;9.30;56.30
43647;DHT22;56152;49.996;18.980;2023-04-26T17:35:58;9.00;56.80
43647;DHT22;56152;49.996;18.980;2023-04-26T17:41:03;8.70;57.20
43647;DHT22;56152;49.996;18.980;2023-04-26T17:46:05;8.40;57.60
43647;DHT22;56152;49.996;18.980;2023-04-26T17:51:09;8.30;57.90
43647;DHT22;56152;49.996;18.980;2023-04-26T17:56:14;8.10;58.20
43647;DHT22;56152;49.996;18.980;2023-04-26T18:01:19;7.90;58.50
43647;DHT22;56152;49.996;18.980;2023-04-26T18:06:22;7.70;59.10
43647;DHT22;56152;49.996;18.980;2023-04-26T18:11:27;7.60;59.70
43647;DHT22;56152;49.996;18.980;2023-04-26T18:16:39;7.40;60.20
43647;DHT22;56152;49.996;18.980;2023-04-26T18:21:52;7.30;60.60
43647;DHT22;56152;49.996;18.980;2023-04-26T18:26:56;7.10;60.90
43647;DHT22;56152;49.996;18.980;2023-04-26T18:31:58;6.90;61.60
43647;DHT22;56152;49.996;18.980;2023-04-26T18:37:01;6.80;62.30
43647;DHT22;56152;49.996;18.980;2023-04-26T18:42:08;6.60;63.30
43647;DHT22;56152;49.996;18.980;2023-04-26T18:47:10;6.40;63.20
43647;DHT22;56152;49.996;18.980;2023-04-26T18:52:12;6.30;63.70
43647;DHT22;56152;49.996;18.980;2023-04-26T18:57:17;6.20;64.00
43647;DHT22;56152;49.996;18.980;2023-04-26T19:02:23;6.00;64.30
43647;DHT22;56152;49.996;18.980;2023-04-26T19:07:28;5.90;64.70
43647;DHT22;56152;49.996;18.980;2023-04-26T19:12:32;5.70;65.00
43647;DHT22;56152;49.996;18.980;2023-04-26T19:17:34;5.60;65.40
43647;DHT22;56152;49.996;18.980;2023-04-26T19:22:36;5.50;65.80
43647;DHT22;56152;49.996;18.980;2023-04-26T19:27:42;5.40;66.00
43647;DHT22;56152;49.996;18.980;2023-04-26T19:32:45;5.30;66.10
43647;DHT22;56152;49.996;18.980;2023-04-26T19:37:47;5.20;66.40
43647;DHT22;56152;49.996;18.980;2023-04-26T19:43:07;5.20;66.70
43647;DHT22;56152;49.996;18.980;2023-04-26T19:48:09;5.10;66.80
43647;DHT22;56152;49.996;18.980;2023-04-26T19:53:13;5.00;67.20
43647;DHT22;56152;49.996;18.980;2023-04-26T19:58:18;4.90;67.60
43647;DHT22;56152;49.996;18.980;2023-04-26T20:03:20;4.80;68.00
43647;DHT22;56152;49.996;18.980;2023-04-26T20:08:23;4.60;68.30
43647;DHT22;56152;49.996;18.980;2023-04-26T20:13:28;4.30;68.80
43647;DHT22;56152;49.996;18.980;2023-04-26T20:18:29;4.20;69.30
43647;DHT22;56152;49.996;18.980;2023-04-26T20:23:32;4.10;69.70
43647;DHT22;56152;49.996;18.980;2023-04-26T20:28:36;4.00;70.00
43647;DHT22;56152;49.996;18.980;2023-04-26T20:33:38;3.80;70.40
43647;DHT22;56152;49.996;18.980;2023-04-26T20:38:45;3.70;70.70
43647;DHT22;56152;49.996;18.980;2023-04-26T20:43:50;3.60;71.00
43647;DHT22;56152;49.996;18.980;2023-04-26T20:48:52;3.40;71.30
43647;DHT22;56152;49.996;18.980;2023-04-26T20:53:55;3.30;71.70
43647;DHT22;56152;49.996;18.980;2023-04-26T20:59:00;3.20;72.00
43647;DHT22;56152;49.996;18.980;2023-04-26T21:04:05;3.10;72.30
43647;DHT22;56152;49.996;18.980;2023-04-26T21:09:07;3.00;72.50
43647;DHT22;56152;49.996;18.980;2023-04-26T21:14:12;3.00;72.70
43647;DHT22;56152;49.996;18.980;2023-04-26T21:19:14;2.90;72.80
43647;DHT22;56152;49.996;18.980;2023-04-26T21:24:16;2.90;73.10
43647;DHT22;56152;49.996;18.980;2023-04-26T21:29:25;2.80;73.20
43647;DHT22;56152;49.996;18.980;2023-04-26T21:34:34;2.80;73.40
43647;DHT22;56152;49.996;18.980;2023-04-26T21:39:39;2.70;73.50
43647;DHT22;56152;49.996;18.980;2023-04-26T21:44:44;2.70;73.70
43647;DHT22;56152;49.996;18.980;2023-04-26T21:49:46;2.60;73.90
43647;DHT22;56152;49.996;18.980;2023-04-26T21:54:49;2.40;74.20
43647;DHT22;56152;49.996;18.980;2023-04-26T21:59:55;2.30;74.60
43647;DHT22;56152;49.996;18.980;2023-04-26T22:04:58;2.20;75.00
43647;DHT22;56152;49.996;18.980;2023-04-26T22:10:01;2.20;75.20
43647;DHT22;56152;49.996;18.980;2023-04-26T22:15:07;2.20;75.40
43647;DHT22;56152;49.996;18.980;2023-04-26T22:20:10;2.10;75.50
43647;DHT22;56152;49.996;18.980;2023-04-26T22:25:13;2.10;75.70
43647;DHT22;56152;49.996;18.980;2023-04-26T22:30:17;2.10;75.70
43647;DHT22;56152;49.996;18.980;2023-04-26T22:35:23;2.00;75.80
43647;DHT22;56152;49.996;18.980;2023-04-26T22:40:26;2.00;76.00
43647;DHT22;56152;49.996;18.980;2023-04-26T22:45:33;2.10;76.10
43647;DHT22;56152;49.996;18.980;2023-04-26T22:50:35;2.10;76.00
43647;DHT22;56152;49.996;18.980;2023-04-26T22:55:37;2.10;76.30
43647;DHT22;56152;49.996;18.980;2023-04-26T23:00:44;2.10;76.40
43647;DHT22;56152;49.996;18.980;2023-04-26T23:05:46;2.10;76.60
43647;DHT22;56152;49.996;18.980;2023-04-26T23:10:48;2.20;76.70
43647;DHT22;56152;49.996;18.980;2023-04-26T23:15:52;2.20;76.70
43647;DHT22;56152;49.996;18.980;2023-04-26T23:20:54;2.20;77.00
43647;DHT22;56152;49.996;18.980;2023-04-26T23:25:56;2.20;77.20
43647;DHT22;56152;49.996;18.980;2023-04-26T23:31:02;2.20;77.50
43647;DHT22;56152;49.996;18.980;2023-04-26T23:36:06;2.20;77.60
43647;DHT22;56152;49.996;18.980;2023-04-26T23:41:08;2.20;77.80
43647;DHT22;56152;49.996;18.980;2023-04-26T23:46:14;2.30;78.00
43647;DHT22;56152;49.996;18.980;2023-04-26T23:51:16;2.30;78.10
43647;DHT22;56152;49.996;18.980;2023-04-26T23:56:20;2.40;78.30
